createdAt,value
2019-01-09T00:00:02.744Z,7.63
2019-01-09T00:05:06.884Z,5.27
2019-01-09T00:10:10.630Z,5.50
2019-01-09T00:15:14.726Z,2.70
2019-01-09T00:20:18.411Z,5.83
2019-01-09T00:25:22.477Z,3.60
2019-01-09T00:30:26.466Z,1.83
2019-01-09T00:35:37.335Z,4.67
2019-01-09T00:40:36.030Z,1.77
2019-01-09T00:45:40.186Z,3.60
2019-01-09T00:50:44.038Z,1.97
2019-01-09T00:55:47.717Z,3.33
2019-01-09T01:00:51.672Z,2.60
2019-01-09T01:06:24.869Z,3.57
2019-01-09T01:12:07.419Z,2.37
2019-01-09T01:17:41.354Z,1.90
2019-01-09T01:23:46.959Z,2.77
2019-01-09T01:29:10.916Z,1.37
2019-01-09T01:34:35.731Z,1.83
2019-01-09T01:39:53.394Z,3.67
2019-01-09T01:45:17.112Z,1.70
2019-01-09T01:50:58.890Z,4.83
2019-01-09T01:56:29.273Z,1.40
2019-01-09T02:02:09.853Z,1.70
2019-01-09T02:07:53.841Z,1.53
2019-01-09T02:13:31.984Z,1.50
2019-01-09T02:18:48.261Z,2.33
2019-01-09T02:24:21.513Z,1.23
2019-01-09T02:30:15.583Z,2.50
2019-01-09T02:35:19.559Z,1.70
2019-01-09T02:40:23.271Z,2.17
2019-01-09T02:45:26.957Z,1.07
2019-01-09T02:50:30.620Z,1.63
2019-01-09T02:55:34.297Z,1.33
2019-01-09T03:00:37.957Z,1.23
2019-01-09T03:05:41.825Z,1.53
2019-01-09T03:10:45.479Z,1.30
2019-01-09T03:15:49.422Z,0.90
2019-01-09T03:20:53.110Z,1.97
2019-01-09T03:25:56.757Z,0.70
2019-01-09T03:31:00.444Z,0.67
2019-01-09T03:36:04.123Z,0.80
2019-01-09T03:41:08.337Z,1.57
2019-01-09T03:46:12.340Z,0.90
2019-01-09T03:51:16.012Z,1.63
2019-01-09T03:56:19.765Z,2.57
2019-01-09T04:01:23.610Z,1.67
2019-01-09T04:06:27.476Z,1.50
2019-01-09T04:11:31.503Z,1.37
2019-01-09T04:16:35.179Z,1.80
2019-01-09T04:21:39.108Z,1.90
2019-01-09T04:26:42.903Z,2.73
2019-01-09T04:31:46.858Z,1.63
2019-01-09T04:36:51.720Z,1.83
2019-01-09T04:41:56.025Z,2.77
2019-01-09T04:46:59.697Z,2.47
2019-01-09T04:52:03.707Z,2.33
2019-01-09T04:57:07.641Z,3.00
2019-01-09T05:02:11.612Z,2.67
2019-01-09T05:07:15.261Z,2.80
2019-01-09T05:12:18.916Z,2.60
2019-01-09T05:17:22.804Z,2.57
2019-01-09T05:22:26.459Z,4.17
2019-01-09T05:27:30.130Z,3.00
2019-01-09T05:32:33.814Z,3.43
2019-01-09T05:37:37.481Z,2.97
2019-01-09T05:42:41.396Z,3.17
2019-01-09T05:47:45.282Z,4.13
2019-01-09T05:52:49.300Z,5.10
2019-01-09T05:57:52.970Z,3.57
2019-01-09T06:02:56.836Z,3.00
2019-01-09T06:08:00.525Z,3.23
2019-01-09T06:13:04.184Z,3.00
2019-01-09T06:18:07.841Z,3.70
2019-01-09T06:23:11.501Z,3.33
2019-01-09T06:28:15.172Z,3.17
2019-01-09T06:33:19.508Z,2.33
2019-01-09T06:38:23.491Z,4.30
2019-01-09T06:43:27.478Z,3.43
2019-01-09T06:48:31.128Z,4.17
2019-01-09T06:53:34.884Z,3.83
2019-01-09T06:58:38.831Z,6.03
2019-01-09T07:03:42.782Z,6.30
2019-01-09T07:08:46.483Z,4.53
2019-01-09T07:13:50.226Z,5.50
2019-01-09T07:18:53.879Z,6.47
2019-01-09T07:23:57.580Z,5.63
2019-01-09T07:29:01.461Z,5.67
2019-01-09T07:34:05.133Z,5.37
2019-01-09T07:39:09.081Z,5.23
2019-01-09T07:44:13.398Z,5.37
2019-01-09T07:49:17.473Z,4.13
2019-01-09T07:54:21.510Z,6.53
2019-01-09T07:59:25.562Z,7.77
2019-01-09T08:04:29.563Z,7.13
2019-01-09T08:09:33.637Z,5.33
2019-01-09T08:14:37.582Z,3.87
2019-01-09T08:19:41.701Z,4.40
2019-01-09T08:24:45.671Z,3.70
2019-01-09T08:29:49.765Z,3.23
2019-01-09T08:34:53.821Z,3.83
2019-01-09T08:39:57.885Z,3.90
2019-01-09T08:45:01.931Z,6.10
2019-01-09T08:50:07.838Z,4.40
2019-01-09T08:55:11.921Z,4.20
2019-01-09T09:00:16.733Z,3.13
2019-01-09T09:05:20.790Z,4.17
2019-01-09T09:10:25.098Z,3.40
2019-01-09T09:15:29.433Z,3.27
2019-01-09T09:20:33.463Z,3.23
2019-01-09T09:25:37.700Z,5.10
2019-01-09T09:30:41.896Z,4.63
2019-01-09T09:35:46.004Z,3.40
2019-01-09T09:40:50.397Z,6.23
2019-01-09T09:45:54.474Z,4.97
2019-01-09T09:50:58.547Z,5.63
2019-01-09T09:56:02.990Z,3.07
2019-01-09T10:01:07.070Z,2.37
2019-01-09T10:06:11.433Z,3.20
2019-01-09T10:11:15.817Z,2.33
2019-01-09T10:16:19.563Z,4.03
2019-01-09T10:21:23.329Z,4.10
2019-01-09T10:26:27.560Z,5.90
2019-01-09T10:31:31.470Z,4.40
2019-01-09T10:36:48.474Z,5.77
2019-01-09T10:41:52.596Z,5.13
2019-01-09T10:46:56.577Z,4.77
2019-01-09T10:52:00.483Z,4.67
2019-01-09T10:57:24.502Z,3.90
2019-01-09T11:02:43.950Z,2.17
2019-01-09T11:07:51.290Z,2.67
2019-01-09T11:13:03.336Z,4.40
2019-01-09T11:18:35.776Z,3.03
2019-01-09T11:23:49.757Z,2.30
2019-01-09T11:28:53.637Z,4.67
2019-01-09T11:33:57.421Z,3.53
2019-01-09T11:39:01.087Z,3.40
2019-01-09T11:44:05.018Z,7.03
2019-01-09T11:49:08.728Z,4.17
2019-01-09T11:54:12.455Z,7.17
2019-01-09T11:59:16.174Z,7.07
2019-01-09T12:04:21.800Z,3.23
2019-01-09T12:09:25.276Z,10.33
2019-01-09T12:14:29.119Z,3.33
2019-01-09T12:19:32.799Z,4.90
2019-01-09T12:24:36.515Z,2.53
2019-01-09T12:29:41.666Z,2.63
2019-01-09T12:34:45.626Z,1.40
2019-01-09T12:39:49.381Z,1.37
2019-01-09T12:44:53.364Z,1.57
2019-01-09T12:49:57.802Z,1.70
2019-01-09T12:55:01.828Z,1.37
2019-01-09T13:00:10.248Z,2.30
2019-01-09T13:05:14.253Z,3.00
2019-01-09T13:10:30.553Z,1.63
2019-01-09T13:15:44.344Z,5.03
2019-01-09T13:20:48.753Z,2.97
2019-01-09T13:26:07.836Z,3.10
2019-01-09T13:31:11.672Z,2.40
2019-01-09T13:36:15.985Z,2.27
2019-01-09T13:41:19.913Z,2.10
2019-01-09T13:46:23.752Z,5.37
2019-01-09T13:51:28.047Z,2.80
2019-01-09T13:56:31.749Z,2.40
2019-01-09T14:01:35.493Z,5.07
2019-01-09T14:06:39.671Z,4.33
2019-01-09T14:11:43.613Z,3.43
2019-01-09T14:16:47.319Z,3.60
2019-01-09T14:21:51.175Z,5.63
2019-01-09T14:26:54.861Z,6.07
2019-01-09T14:31:58.685Z,3.20
2019-01-09T14:37:02.366Z,4.80
2019-01-09T14:42:06.128Z,3.17
2019-01-09T14:47:09.881Z,3.80
2019-01-09T14:52:13.632Z,5.03
2019-01-09T14:57:17.337Z,4.20
2019-01-09T15:02:21.025Z,2.80
2019-01-09T15:07:24.744Z,3.47
2019-01-09T15:12:28.533Z,5.43
2019-01-09T15:17:32.489Z,3.50
2019-01-09T15:22:36.152Z,5.93
2019-01-09T15:27:39.846Z,7.20
2019-01-09T15:32:43.642Z,6.57
2019-01-09T15:37:47.550Z,6.97
2019-01-09T15:42:51.753Z,5.53
2019-01-09T15:47:55.499Z,8.77
2019-01-09T15:52:59.191Z,8.03
2019-01-09T15:58:02.919Z,6.47
2019-01-09T16:03:06.938Z,8.17
2019-01-09T16:08:11.338Z,8.03
2019-01-09T16:13:15.011Z,6.27
2019-01-09T16:18:19.111Z,7.70
2019-01-09T16:23:22.784Z,7.43
2019-01-09T16:28:26.518Z,7.13
2019-01-09T16:33:30.344Z,7.67
2019-01-09T16:38:34.145Z,7.83
2019-01-09T16:43:37.905Z,6.00
2019-01-09T16:48:41.819Z,10.27
2019-01-09T16:53:45.808Z,8.10
2019-01-09T16:58:49.810Z,6.43
2019-01-09T17:03:53.914Z,6.83
2019-01-09T17:08:57.596Z,8.03
2019-01-09T17:14:01.586Z,7.33
2019-01-09T17:19:05.589Z,10.60
2019-01-09T17:24:09.575Z,7.07
2019-01-09T17:29:13.391Z,10.93
2019-01-09T17:34:17.177Z,10.63
2019-01-09T17:39:20.935Z,10.50
2019-01-09T17:44:25.113Z,12.47
2019-01-09T17:49:28.796Z,11.53
2019-01-09T17:54:32.524Z,8.37
2019-01-09T17:59:36.306Z,9.03
2019-01-09T18:04:40.158Z,8.70
2019-01-09T18:09:44.073Z,5.53
2019-01-09T18:14:47.841Z,5.30
2019-01-09T18:19:51.669Z,6.60
2019-01-09T18:24:55.352Z,5.77
2019-01-09T18:29:59.100Z,7.87
2019-01-09T18:35:59.669Z,7.20
2019-01-09T18:41:27.415Z,7.03
2019-01-09T18:47:20.691Z,11.30
2019-01-09T18:52:48.793Z,10.17
2019-01-09T18:57:52.696Z,6.80
2019-01-09T19:02:56.593Z,10.27
2019-01-09T19:08:01.188Z,9.20
2019-01-09T19:13:05.300Z,9.50
2019-01-09T19:18:09.056Z,8.60
2019-01-09T19:23:13.054Z,8.63
2019-01-09T19:28:16.812Z,9.00
2019-01-09T19:33:20.919Z,10.13
2019-01-09T19:38:24.835Z,7.53
2019-01-09T19:43:28.638Z,8.63
2019-01-09T19:48:32.697Z,9.43
2019-01-09T19:53:37.012Z,7.77
2019-01-09T19:58:40.701Z,9.20
2019-01-09T20:03:44.625Z,11.03
2019-01-09T20:08:48.693Z,10.40
2019-01-09T20:13:52.440Z,10.80
2019-01-09T20:18:56.298Z,12.17
2019-01-09T20:24:00.132Z,10.70
2019-01-09T20:29:04.063Z,10.97
2019-01-09T20:34:08.125Z,11.00
2019-01-09T20:39:12.516Z,10.50
2019-01-09T20:44:16.562Z,10.00
2019-01-09T20:49:20.323Z,11.37
2019-01-09T20:54:24.135Z,10.93
2019-01-09T20:59:31.364Z,14.07
2019-01-09T21:04:35.547Z,10.83
2019-01-09T21:09:39.281Z,9.90
2019-01-09T21:14:43.178Z,11.17
2019-01-09T21:19:47.383Z,12.00
2019-01-09T21:24:51.211Z,12.13
2019-01-09T21:29:54.885Z,12.00
2019-01-09T21:34:58.639Z,10.50
2019-01-09T21:40:02.375Z,11.47
2019-01-09T21:45:08.096Z,11.17
2019-01-09T21:50:13.017Z,13.53
2019-01-09T21:55:17.292Z,9.77
2019-01-09T22:00:23.094Z,11.80
2019-01-09T22:05:27.499Z,13.50
2019-01-09T22:10:33.849Z,9.50
2019-01-09T22:15:38.890Z,11.30
2019-01-09T22:20:43.687Z,10.70
2019-01-09T22:25:47.659Z,10.23
2019-01-09T22:30:51.389Z,7.83
2019-01-09T22:35:55.195Z,8.23
2019-01-09T22:40:59.177Z,8.13
2019-01-09T22:46:03.033Z,8.03
2019-01-09T22:51:07.167Z,7.40
2019-01-09T22:56:10.938Z,8.73
2019-01-09T23:01:18.332Z,8.20
2019-01-09T23:06:22.422Z,6.67
2019-01-09T23:11:26.204Z,7.97
2019-01-09T23:16:30.086Z,8.73
2019-01-09T23:21:33.792Z,9.73
2019-01-09T23:26:37.789Z,11.53
2019-01-09T23:31:41.897Z,11.23
2019-01-09T23:36:45.717Z,11.73
2019-01-09T23:41:49.470Z,13.17
2019-01-09T23:46:53.215Z,13.30
2019-01-09T23:51:56.879Z,12.17
2019-01-09T23:57:00.819Z,14.63
